Aviation Digital Data Service (ADDS)

Output produced by METARs form (0233 UTC 16 January 2019)
found at http://www.aviationweather.gov/metar/data/
 
EIME 160200Z 22017KT 9999 FEW018 SCT200 08/07 Q1002
TAF EIME 160200Z 1603/1612 22018G28KT 9999 SCT015 BKN025 
     BECMG 1603/1606 27015G25KT 
     TEMPO 1603/1606 -RA BKN012 
     PROB40 
     TEMPO 1603/1606 4000 
     BECMG 1606/1608 27013KT
       
TAF EIKN 152300Z 1600/1624 27013KT 4000 -RADZ BKN005 
     TEMPO 1600/1602 2000 BKN002 
     BECMG 1602/1604 9999 NSW SCT012 BKN020 
     TEMPO 1604/1608 BKN010 
     BECMG 1606/1609 23009KT 
     TEMPO 1608/1621 4000 -SHRA BKN008 SCT018CB 
     BECMG 1609/1612 20010KT 
     PROB40 
     TEMPO 1611/1618 3000 SHRAGS BKN005 
     BECMG 1615/1618 35012KT 
     BECMG 1618/1621 31012KT
       
EICK 160230Z 30016KT 9999 -RA FEW003 BKN005 BKN010 06/06 Q1006 TEMPO 3000 BKN003
TAF EICK 152300Z 1600/1624 22014KT 9999 SCT002 BKN005 
     TEMPO 1600/1603 23016G26KT 
     TEMPO 1600/1605 3000 -RADZ BKN002 
     BECMG 1603/1606 29013KT 
     BECMG 1605/1607 SCT012 BKN025 
     BECMG 1609/1612 24013KT 
     TEMPO 1611/1613 24016G26KT 
     TEMPO 1611/1620 -SHRA SCT018CB 
     PROB40 
     TEMPO 1612/1618 4000 SHRA BKN010 
     BECMG 1613/1615 29020G32KT 
     BECMG 1618/1620 32016G27KT 
     BECMG 1620/1622 32012KT
       
TAF EIDL 151700Z 1518/1521 22020G33KT 9999 FEW012 SCT020 
     TEMPO 1518/1521 4000 -DZ BKN012
       
EIDW 160230Z 22011KT 180V250 9999 FEW015 BKN045 09/06 Q1002 NOSIG
TAF EIDW 152300Z 1600/1624 22014KT 9999 SCT012 BKN025 
     TEMPO 1600/1604 22017G28KT 
     BECMG 1604/1606 26016G26KT 
     TEMPO 1604/1607 -RA BKN012 
     PROB30 
     TEMPO 1604/1607 4000 
     BECMG 1606/1609 27015KT 
     BECMG 1612/1615 25010KT 
     TEMPO 1614/1619 -SHRA SCT018CB 
     PROB30 
     TEMPO 1614/1619 4000 SHRA 
     BECMG 1616/1618 30010KT 
     BECMG 1621/1624 27010KT
       
TAF EIKY 151700Z 1518/1521 22015KT 9999 SCT020 BKN025 
     TEMPO 1518/1521 -DZ BKN012
       
EINN 160230Z 24010KT 9999 -RA FEW008 BKN015 BKN028 06/05 Q1005 TEMPO BKN008
TAF EINN 152300Z 1600/1624 20014KT 9999 SCT012 BKN020 
     TEMPO 1600/1601 21015G25KT 
     TEMPO 1600/1604 4000 -RADZ BKN008 
     BECMG 1601/1603 26015G25KT 
     BECMG 1603/1605 29010KT 
     BECMG 1606/1609 24008KT 
     TEMPO 1608/1621 -SHRA SCT018CB 
     BECMG 1609/1612 21015KT 
     PROB40 
     TEMPO 1612/1620 4000 SHRAGS BKN010 SCT018CB 
     BECMG 1613/1615 29016G27KT 
     TEMPO 1616/1618 29015KT 
     BECMG 1618/1621 34012KT 
     BECMG 1621/1624 29008KT
       
TAF EISG 160200Z 1603/1612 27015KT 9999 SCT012 BKN020 
     TEMPO 1603/1604 4000 -RA BKN012 
     BECMG 1606/1609 24010KT 
     TEMPO 1606/1612 4000 -SHRA BKN010 SCT018CB 
     BECMG 1609/1612 20013KT
       
TAF EIWF 160200Z 1603/1612 24017KT 9999 SCT008 BKN012 
     TEMPO 1603/1604 25018G28KT -DZ BKN003 
     BECMG 1604/1606 30015KT 
     TEMPO 1604/1606 3000 -RADZ BKN003 
     BECMG 1606/1608 BKN020